Time;durP1;ratioP1;P1;durP2;ratioP2;P2;SDS_P1;SDS_P2;PMS_P1;PMS_P2;Temp;Humidity;BMP_temperature;BMP_pressure;BME280_temperature;BME280_humidity;BME280_pressure;Samples;Min_cycle;Max_cycle;Signal;HPM_P1;HPM_P2
2022/02/19 00:00:42;;;;;;;5.85;2.10;;;15.80;52.50;;;;;;4956818;28;20110;-66
2022/02/19 00:03:09;;;;;;;9.23;2.47;;;15.90;52.50;;;;;;4957135;28;20031;-66
2022/02/19 00:05:37;;;;;;;4.25;1.92;;;15.90;52.40;;;;;;4954702;29;20031;-66
2022/02/19 00:08:03;;;;;;;6.07;2.15;;;15.90;52.30;;;;;;4957134;28;20034;-66
2022/02/19 00:10:29;;;;;;;4.47;1.90;;;16.00;52.30;;;;;;4956025;28;20031;-65
2022/02/19 00:12:54;;;;;;;8.00;2.15;;;16.00;52.30;;;;;;4956451;28;20042;-66
2022/02/19 00:15:20;;;;;;;5.85;2.10;;;16.00;52.30;;;;;;4956025;28;20471;-65
2022/02/19 00:17:46;;;;;;;7.70;2.25;;;16.00;52.40;;;;;;4957087;28;20240;-66
2022/02/19 00:20:13;;;;;;;7.38;2.00;;;16.00;52.50;;;;;;4956417;28;20035;-67
2022/02/19 00:22:39;;;;;;;7.70;1.90;;;15.90;52.50;;;;;;4956448;28;20039;-65
2022/02/19 00:25:06;;;;;;;6.10;2.40;;;15.90;52.70;;;;;;4956359;28;20053;-65
2022/02/19 00:27:32;;;;;;;7.57;2.55;;;16.00;52.60;;;;;;4962767;28;20362;-65
2022/02/19 00:29:57;;;;;;;8.18;2.25;;;16.00;52.20;;;;;;4995193;28;20026;-65
2022/02/19 00:32:23;;;;;;;7.32;2.55;;;15.80;51.70;;;;;;4994639;28;20469;-64
2022/02/19 00:34:49;;;;;;;7.38;2.65;;;15.80;51.90;;;;;;4994802;28;20048;-64
2022/02/19 00:37:15;;;;;;;8.15;2.30;;;15.60;51.80;;;;;;4994579;28;20089;-64
2022/02/19 00:39:41;;;;;;;4.93;1.98;;;15.50;51.90;;;;;;4977611;28;20482;-64
2022/02/19 00:42:06;;;;;;;5.10;1.75;;;15.40;51.70;;;;;;4995027;28;20041;-64
2022/02/19 00:44:33;;;;;;;3.35;1.80;;;15.30;51.70;;;;;;4994449;28;20031;-65
2022/02/19 00:46:59;;;;;;;5.72;1.67;;;15.20;51.70;;;;;;4994514;28;20054;-65
2022/02/19 00:49:25;;;;;;;2.40;1.40;;;15.00;51.90;;;;;;4976539;28;20031;-65
2022/02/19 00:51:51;;;;;;;4.07;1.58;;;14.80;52.30;;;;;;4995111;28;20258;-65
2022/02/19 00:54:17;;;;;;;6.85;1.20;;;14.60;52.40;;;;;;4975568;28;20470;-65
2022/02/19 00:56:43;;;;;;;4.35;1.30;;;14.60;52.60;;;;;;4994575;28;20054;-64
2022/02/19 00:59:09;;;;;;;6.35;1.40;;;14.50;52.60;;;;;;4976913;28;20062;-64
2022/02/19 01:01:37;;;;;;;3.03;1.27;;;14.40;52.90;;;;;;4994806;28;20026;-64
2022/02/19 01:04:03;;;;;;;3.80;1.00;;;14.40;53.10;;;;;;4976778;28;20030;-65
2022/02/19 01:06:29;;;;;;;4.13;1.20;;;14.50;53.00;;;;;;4993962;28;20037;-65
2022/02/19 01:08:55;;;;;;;2.65;1.27;;;14.60;53.00;;;;;;4994419;28;20026;-66
2022/02/19 01:11:21;;;;;;;3.65;1.20;;;14.60;53.20;;;;;;4976306;28;20027;-64
2022/02/19 01:13:47;;;;;;;6.15;1.40;;;14.60;53.30;;;;;;4993264;28;20445;-65
2022/02/19 01:16:14;;;;;;;2.97;1.10;;;14.50;53.90;;;;;;4994300;28;20034;-65
2022/02/19 01:18:40;;;;;;;2.65;0.98;;;14.30;54.30;;;;;;4977023;28;20058;-65
2022/02/19 01:21:05;;;;;;;2.58;0.93;;;14.20;54.00;;;;;;4976738;28;20080;-65
2022/02/19 01:23:33;;;;;;;2.20;0.90;;;14.00;54.40;;;;;;4976539;28;20158;-66
2022/02/19 01:26:02;;;;;;;1.63;0.70;;;13.70;54.10;;;;;;4994508;28;20030;-67
2022/02/19 01:28:30;;;;;;;3.40;0.80;;;13.50;54.20;;;;;;4961851;28;20094;-67
2022/02/19 01:30:57;;;;;;;3.63;0.80;;;13.40;54.10;;;;;;4953940;29;20131;-65
2022/02/19 01:33:23;;;;;;;1.40;0.68;;;13.40;54.10;;;;;;4969376;28;20113;-65
2022/02/19 01:35:49;;;;;;;2.05;0.80;;;13.30;53.70;;;;;;4953713;29;20351;-64
2022/02/19 01:38:17;;;;;;;1.80;0.82;;;13.20;52.70;;;;;;4953270;29;20030;-68
2022/02/19 01:40:43;;;;;;;2.10;0.80;;;13.10;52.40;;;;;;4953404;29;20078;-67
2022/02/19 01:43:10;;;;;;;2.25;0.70;;;12.90;52.60;;;;;;4954926;28;20441;-64
2022/02/19 01:45:36;;;;;;;2.72;0.70;;;12.90;52.50;;;;;;4954402;28;20038;-64
2022/02/19 01:48:02;;;;;;;1.05;0.80;;;12.80;52.30;;;;;;4953887;29;20130;-64
2022/02/19 01:50:28;;;;;;;3.25;0.80;;;12.80;52.20;;;;;;4937239;29;20408;-65
2022/02/19 01:52:54;;;;;;;1.17;0.70;;;12.70;52.10;;;;;;4954641;28;20036;-65
2022/02/19 01:55:20;;;;;;;3.83;0.82;;;12.70;52.00;;;;;;4954305;28;20079;-65
2022/02/19 01:57:48;;;;;;;3.67;1.13;;;12.60;52.00;;;;;;4954610;28;20112;-65
2022/02/19 02:00:32;;;;;;;1.10;0.70;;;12.50;52.10;;;;;;4954053;28;20099;-65
2022/02/19 02:02:58;;;;;;;3.90;1.00;;;12.40;51.90;;;;;;4954201;28;20035;-64
2022/02/19 02:05:25;;;;;;;1.75;0.80;;;12.30;52.00;;;;;;4953937;28;20031;-66
2022/02/19 02:07:51;;;;;;;1.65;0.88;;;12.20;52.20;;;;;;4953531;28;20161;-64
2022/02/19 02:10:17;;;;;;;1.88;0.90;;;12.10;52.30;;;;;;4952482;29;20117;-65
2022/02/19 02:12:43;;;;;;;2.67;0.70;;;12.00;52.70;;;;;;4952338;29;20035;-65
2022/02/19 02:15:29;;;;;;;1.35;0.80;;;11.90;53.10;;;;;;4952953;29;20034;-65
2022/02/19 02:17:57;;;;;;;2.17;0.65;;;11.90;53.40;;;;;;4954020;28;20058;-65
2022/02/19 02:20:24;;;;;;;3.58;1.00;;;11.80;54.00;;;;;;4953534;28;20023;-64
2022/02/19 02:22:50;;;;;;;4.70;0.90;;;11.70;54.30;;;;;;4953811;28;20122;-67
2022/02/19 02:25:16;;;;;;;2.17;0.80;;;11.60;54.30;;;;;;4951995;29;20129;-66
2022/02/19 02:27:42;;;;;;;3.72;0.90;;;11.50;54.60;;;;;;4963492;28;20038;-64
2022/02/19 02:30:08;;;;;;;4.25;1.15;;;11.50;54.80;;;;;;4990894;28;20525;-66
2022/02/19 02:32:34;;;;;;;1.45;0.73;;;11.40;54.90;;;;;;4973783;28;20066;-65
2022/02/19 02:35:00;;;;;;;2.30;1.00;;;11.40;55.00;;;;;;4992382;28;20049;-64
2022/02/19 02:37:26;;;;;;;2.90;0.75;;;11.30;54.90;;;;;;4991446;28;20420;-64
2022/02/19 02:39:52;;;;;;;1.40;0.88;;;11.30;55.00;;;;;;4992394;28;20026;-64
2022/02/19 02:42:19;;;;;;;2.00;0.80;;;11.20;55.10;;;;;;4974703;28;20031;-64
2022/02/19 02:44:46;;;;;;;1.92;0.90;;;11.30;54.90;;;;;;4975224;28;20045;-64
2022/02/19 02:47:12;;;;;;;1.88;0.90;;;11.20;55.00;;;;;;4992619;28;20097;-58
2022/02/19 02:49:38;;;;;;;2.42;0.95;;;11.20;54.80;;;;;;4992935;28;20034;-58
2022/02/19 02:52:05;;;;;;;2.05;0.88;;;11.20;55.00;;;;;;4975575;28;20031;-60
2022/02/19 02:54:31;;;;;;;2.25;0.90;;;11.20;54.60;;;;;;4992336;28;20026;-59
2022/02/19 02:56:57;;;;;;;5.75;1.00;;;11.20;54.60;;;;;;4993039;28;20033;-59
2022/02/19 02:59:22;;;;;;;1.77;0.82;;;11.20;54.60;;;;;;4991726;28;20485;-59
2022/02/19 03:01:48;;;;;;;2.15;0.90;;;11.20;54.60;;;;;;4992872;28;20026;-57
2022/02/19 03:04:14;;;;;;;4.63;0.98;;;11.10;54.30;;;;;;4992089;28;20042;-60
2022/02/19 03:06:39;;;;;;;1.58;0.90;;;11.10;54.40;;;;;;4975031;28;20030;-62
2022/02/19 03:09:05;;;;;;;2.08;0.70;;;11.20;54.20;;;;;;4992341;28;20038;-59
2022/02/19 03:11:31;;;;;;;3.05;0.95;;;11.10;54.20;;;;;;4991968;28;20474;-56
2022/02/19 03:13:56;;;;;;;1.98;0.80;;;11.10;54.10;;;;;;4992586;28;20026;-58
2022/02/19 03:16:22;;;;;;;1.73;0.93;;;11.10;54.10;;;;;;4974790;28;20465;-59
2022/02/19 03:18:48;;;;;;;3.13;0.93;;;11.20;53.80;;;;;;4974410;28;20470;-59
2022/02/19 03:21:13;;;;;;;3.75;1.10;;;11.20;53.60;;;;;;4974674;28;20026;-60
2022/02/19 03:23:39;;;;;;;3.05;0.90;;;11.10;53.40;;;;;;4991701;28;20037;-56
2022/02/19 03:26:08;;;;;;;3.58;1.00;;;11.20;53.50;;;;;;4992170;28;20054;-58
2022/02/19 03:28:34;;;;;;;4.35;1.33;;;11.10;53.50;;;;;;4991540;28;20074;-58
2022/02/19 03:31:00;;;;;;;2.50;0.90;;;11.00;53.70;;;;;;4992756;28;20054;-61
2022/02/19 03:33:26;;;;;;;3.85;0.90;;;11.00;53.80;;;;;;4992069;28;20030;-58
2022/02/19 03:35:54;;;;;;;2.33;0.90;;;10.90;53.70;;;;;;4974832;28;20029;-59
2022/02/19 03:38:20;;;;;;;2.53;0.80;;;10.90;53.60;;;;;;4991606;28;20088;-60
2022/02/19 03:40:46;;;;;;;3.03;0.77;;;10.90;53.70;;;;;;4992045;28;20117;-60
2022/02/19 03:43:12;;;;;;;3.83;1.10;;;10.90;53.50;;;;;;4992026;28;20117;-60
2022/02/19 03:45:41;;;;;;;1.75;0.93;;;10.90;53.60;;;;;;4991651;28;20054;-59
2022/02/19 03:48:06;;;;;;;3.95;1.10;;;10.90;53.80;;;;;;4992177;28;20034;-59
2022/02/19 03:50:33;;;;;;;2.45;0.90;;;10.90;53.20;;;;;;4991495;28;20433;-58
2022/02/19 03:52:58;;;;;;;3.45;0.85;;;10.80;53.40;;;;;;4975368;28;20026;-62
2022/02/19 03:55:24;;;;;;;2.20;0.90;;;10.80;53.10;;;;;;4991543;28;20100;-59
2022/02/19 03:57:50;;;;;;;3.08;1.10;;;10.80;52.80;;;;;;4974055;28;20129;-60
2022/02/19 04:00:16;;;;;;;3.72;1.00;;;10.80;52.80;;;;;;4990594;28;20069;-60
2022/02/19 04:02:43;;;;;;;2.80;0.88;;;10.80;52.80;;;;;;4991578;28;20117;-58
2022/02/19 04:05:10;;;;;;;1.90;1.08;;;10.70;52.70;;;;;;4991987;28;20030;-59
2022/02/19 04:07:36;;;;;;;3.88;1.20;;;10.70;52.10;;;;;;4973806;28;20726;-60
2022/02/19 04:10:03;;;;;;;2.38;0.82;;;10.70;52.10;;;;;;4992259;28;20030;-58
2022/02/19 04:12:29;;;;;;;1.92;0.80;;;10.70;51.30;;;;;;4991691;28;20027;-59
2022/02/19 04:14:55;;;;;;;5.03;1.30;;;10.70;51.40;;;;;;4990915;28;20034;-60
2022/02/19 04:17:22;;;;;;;4.82;1.15;;;10.70;51.40;;;;;;4989911;28;20033;-57
2022/02/19 04:19:53;;;;;;;1.52;0.75;;;10.70;50.50;;;;;;4974631;28;20030;-60
2022/02/19 04:22:19;;;;;;;3.25;1.10;;;10.70;50.50;;;;;;4992079;28;20601;-62
2022/02/19 04:24:46;;;;;;;1.98;0.82;;;10.70;50.20;;;;;;4990952;28;20026;-59
2022/02/19 04:27:15;;;;;;;3.00;1.20;;;10.70;49.70;;;;;;4991378;28;20097;-59
2022/02/19 04:29:40;;;;;;;2.85;0.73;;;10.60;49.60;;;;;;4993328;28;20026;-58
2022/02/19 04:32:07;;;;;;;3.65;0.90;;;10.70;49.50;;;;;;4995063;28;20126;-59
2022/02/19 04:34:32;;;;;;;4.10;1.00;;;10.70;49.10;;;;;;4994186;28;20076;-59
2022/02/19 04:36:58;;;;;;;2.22;0.80;;;10.70;48.80;;;;;;4977625;28;20026;-57
2022/02/19 04:39:24;;;;;;;3.67;0.95;;;10.80;48.30;;;;;;4992693;28;20117;-59
2022/02/19 04:41:50;;;;;;;4.00;0.90;;;10.80;48.20;;;;;;4995512;28;20030;-60
2022/02/19 04:44:16;;;;;;;2.15;1.00;;;10.80;48.00;;;;;;4977586;28;20088;-59
2022/02/19 04:46:42;;;;;;;2.38;1.13;;;10.90;47.70;;;;;;4994255;28;20373;-60
2022/02/19 04:49:09;;;;;;;2.40;0.90;;;10.80;47.40;;;;;;4994706;28;20085;-60
2022/02/19 04:51:53;;;;;;;2.97;1.00;;;10.90;47.20;;;;;;4976804;28;20030;-58
2022/02/19 04:54:19;;;;;;;1.98;0.80;;;10.90;46.70;;;;;;4994482;28;20058;-60
2022/02/19 04:56:45;;;;;;;3.97;1.10;;;10.90;46.70;;;;;;4994520;28;20069;-59
2022/02/19 04:59:11;;;;;;;3.17;1.00;;;10.90;46.40;;;;;;4995205;28;20218;-61
2022/02/19 05:01:36;;;;;;;1.67;0.80;;;10.90;46.30;;;;;;4976798;28;20066;-60
2022/02/19 05:04:04;;;;;;;3.03;1.23;;;11.00;46.00;;;;;;4994361;28;20470;-60
2022/02/19 05:06:32;;;;;;;5.55;1.58;;;11.00;45.80;;;;;;4993710;28;20469;-57
2022/02/19 05:08:59;;;;;;;2.67;1.15;;;11.00;45.60;;;;;;4993449;28;20034;-56
2022/02/19 05:11:26;;;;;;;4.30;1.00;;;11.00;45.60;;;;;;4993352;28;20030;-61
2022/02/19 05:13:52;;;;;;;2.78;1.05;;;11.10;45.50;;;;;;4994516;28;20114;-59
2022/02/19 05:16:18;;;;;;;4.30;0.98;;;11.10;45.20;;;;;;4994464;28;20474;-60
2022/02/19 05:18:47;;;;;;;2.50;0.95;;;11.10;45.20;;;;;;4994387;28;20033;-58
2022/02/19 05:21:13;;;;;;;2.72;0.90;;;11.10;45.30;;;;;;4993876;28;20026;-58
2022/02/19 05:23:38;;;;;;;3.80;0.90;;;11.10;45.40;;;;;;4993734;28;20260;-59
2022/02/19 05:26:05;;;;;;;5.05;1.05;;;11.10;45.50;;;;;;4977212;28;20465;-60
2022/02/19 05:28:31;;;;;;;5.10;1.40;;;11.10;45.60;;;;;;4993390;28;20046;-58
2022/02/19 05:30:57;;;;;;;6.43;1.23;;;11.00;45.60;;;;;;4976968;28;20037;-60
2022/02/19 05:33:23;;;;;;;5.70;1.13;;;11.10;45.60;;;;;;4993724;28;20030;-59
2022/02/19 05:35:48;;;;;;;3.55;0.98;;;11.00;45.60;;;;;;4994088;28;20031;-59
2022/02/19 05:38:14;;;;;;;2.45;0.90;;;11.00;46.10;;;;;;4976804;28;20050;-59
2022/02/19 05:40:40;;;;;;;2.15;1.00;;;10.90;46.00;;;;;;4993003;28;20103;-59
2022/02/19 05:43:05;;;;;;;7.15;1.30;;;10.90;46.20;;;;;;4993921;28;20520;-55
2022/02/19 05:45:31;;;;;;;6.72;1.60;;;10.90;46.00;;;;;;4993222;28;20030;-59
2022/02/19 05:47:58;;;;;;;2.10;0.90;;;11.00;46.00;;;;;;4994012;28;20480;-58
2022/02/19 05:50:25;;;;;;;4.13;1.23;;;11.00;45.90;;;;;;4976083;28;20030;-59
2022/02/19 05:52:51;;;;;;;2.33;1.00;;;11.00;45.90;;;;;;4993380;28;20035;-60
2022/02/19 05:55:17;;;;;;;4.57;1.10;;;11.00;45.90;;;;;;4993973;28;20034;-59
2022/02/19 05:57:46;;;;;;;5.85;1.17;;;11.00;45.70;;;;;;4992994;28;20023;-63
2022/02/19 06:00:12;;;;;;;3.67;1.05;;;11.00;46.00;;;;;;4976614;28;20027;-61
2022/02/19 06:02:38;;;;;;;3.75;1.25;;;10.90;46.00;;;;;;4992993;28;20093;-60
2022/02/19 06:05:04;;;;;;;3.47;1.20;;;10.90;45.90;;;;;;4975835;28;20026;-58
2022/02/19 06:07:31;;;;;;;3.15;1.20;;;10.90;46.10;;;;;;4992678;28;20081;-60
2022/02/19 06:09:57;;;;;;;3.33;1.10;;;10.90;46.20;;;;;;4976387;28;20447;-59
2022/02/19 06:12:24;;;;;;;4.95;1.30;;;10.90;46.00;;;;;;4974694;28;20034;-62
2022/02/19 06:14:50;;;;;;;5.10;1.38;;;11.00;45.90;;;;;;4991588;28;20103;-62
2022/02/19 06:17:15;;;;;;;3.72;1.02;;;11.00;45.70;;;;;;4993468;28;20484;-61
2022/02/19 06:19:41;;;;;;;3.38;1.00;;;11.00;45.60;;;;;;4992567;28;20252;-64
2022/02/19 06:22:07;;;;;;;6.70;1.50;;;11.10;45.60;;;;;;4975652;28;20033;-60
2022/02/19 06:24:34;;;;;;;4.72;1.13;;;11.10;45.60;;;;;;4974823;28;20605;-61
2022/02/19 06:26:59;;;;;;;2.70;1.10;;;11.10;45.60;;;;;;4975927;28;20026;-60
2022/02/19 06:29:32;;;;;;;3.28;1.08;;;11.10;45.60;;;;;;4992819;28;20195;-61
2022/02/19 06:32:04;;;;;;;4.25;1.55;;;11.10;45.20;;;;;;4993317;28;20038;-60
2022/02/19 06:34:32;;;;;;;5.18;1.17;;;11.10;45.20;;;;;;4992081;28;20496;-61
2022/02/19 06:37:02;;;;;;;4.75;1.50;;;11.20;45.20;;;;;;4991543;28;20385;-62
2022/02/19 06:39:28;;;;;;;3.90;1.55;;;11.20;45.00;;;;;;4991443;28;20072;-61
2022/02/19 06:41:54;;;;;;;5.00;1.20;;;11.20;44.90;;;;;;4974834;28;20062;-62
2022/02/19 06:44:20;;;;;;;5.63;1.10;;;11.10;45.20;;;;;;4974924;28;20037;-62
2022/02/19 06:46:46;;;;;;;3.95;1.48;;;11.10;45.00;;;;;;4991881;28;20140;-67
2022/02/19 06:49:12;;;;;;;5.40;1.40;;;11.20;45.10;;;;;;4992560;28;20058;-61
2022/02/19 06:51:40;;;;;;;4.60;1.40;;;11.20;44.90;;;;;;4991057;28;20555;-61
2022/02/19 06:54:06;;;;;;;5.57;1.60;;;11.20;44.80;;;;;;4990930;28;20465;-62
2022/02/19 06:56:32;;;;;;;5.28;1.48;;;11.20;45.10;;;;;;4974432;28;20022;-61
2022/02/19 06:59:01;;;;;;;4.85;1.27;;;11.20;45.10;;;;;;4974531;28;20121;-61
2022/02/19 07:01:29;;;;;;;7.18;1.83;;;11.30;45.00;;;;;;4974089;28;20049;-62
2022/02/19 07:03:58;;;;;;;4.13;1.17;;;11.30;45.00;;;;;;4974821;28;20084;-62
2022/02/19 07:06:24;;;;;;;2.65;1.30;;;11.30;45.20;;;;;;4974790;28;20088;-61
2022/02/19 07:08:50;;;;;;;5.15;1.55;;;11.20;45.40;;;;;;4991424;28;20509;-62
2022/02/19 07:11:16;;;;;;;7.93;1.58;;;11.20;45.30;;;;;;4974244;28;20056;-63
2022/02/19 07:13:42;;;;;;;5.20;1.60;;;11.20;45.40;;;;;;4991606;28;20120;-61
2022/02/19 07:16:08;;;;;;;4.38;1.60;;;11.20;45.50;;;;;;4991920;28;20121;-60
2022/02/19 07:18:34;;;;;;;4.15;1.30;;;11.20;45.80;;;;;;4973307;28;20037;-60
2022/02/19 07:21:00;;;;;;;8.30;1.55;;;11.10;46.00;;;;;;4974581;28;20037;-63
2022/02/19 07:23:26;;;;;;;6.28;1.75;;;11.10;46.20;;;;;;4991065;28;20039;-59
2022/02/19 07:25:52;;;;;;;7.07;1.65;;;11.10;46.90;;;;;;4992632;28;20023;-60
2022/02/19 07:28:18;;;;;;;4.88;1.30;;;11.10;46.70;;;;;;4975208;28;20101;-61
2022/02/19 07:30:44;;;;;;;3.65;1.30;;;11.10;46.40;;;;;;4974298;28;20105;-62
2022/02/19 07:33:11;;;;;;;5.88;1.60;;;11.10;47.10;;;;;;4975108;28;20030;-57
2022/02/19 07:35:38;;;;;;;5.65;1.45;;;11.00;46.60;;;;;;4974573;28;20026;-58
2022/02/19 07:38:04;;;;;;;7.88;1.83;;;11.10;46.70;;;;;;4975296;28;20393;-58
2022/02/19 07:40:30;;;;;;;8.32;1.80;;;11.10;46.40;;;;;;4974431;28;20117;-61
2022/02/19 07:42:56;;;;;;;3.58;1.23;;;11.00;46.80;;;;;;4974761;28;20221;-60
2022/02/19 07:45:23;;;;;;;7.60;1.60;;;11.10;47.10;;;;;;4974803;28;20117;-61
2022/02/19 07:47:50;;;;;;;7.05;1.50;;;11.10;46.50;;;;;;4974312;28;20031;-60
2022/02/19 07:58:33;;;;;;;7.30;1.90;;;11.80;44.90;;;;;;4992213;28;20116;-62
2022/02/19 08:01:04;;;;;;;4.18;1.63;;;11.90;45.00;;;;;;4992069;28;20169;-62
2022/02/19 08:03:31;;;;;;;7.35;1.60;;;12.00;45.00;;;;;;4970260;28;20034;-62
2022/02/19 08:05:58;;;;;;;9.05;1.70;;;12.60;43.40;;;;;;4995276;28;20109;-61
2022/02/19 08:08:24;;;;;;;5.95;2.85;;;12.30;43.30;;;;;;4978970;28;20030;-61
2022/02/19 08:10:50;;;;;;;7.82;3.50;;;12.50;44.50;;;;;;4977796;28;20023;-63
2022/02/19 08:13:18;;;;;;;4.50;3.40;;;14.30;41.40;;;;;;4978435;28;20133;-62
2022/02/19 08:15:45;;;;;;;10.27;3.70;;;17.10;37.30;;;;;;4977731;28;20027;-60
2022/02/19 08:18:12;;;;;;;8.20;3.47;;;18.80;33.20;;;;;;4995828;28;20044;-61
2022/02/19 08:20:41;;;;;;;5.85;3.60;;;20.00;32.40;;;;;;4994655;28;20117;-61
2022/02/19 08:23:08;;;;;;;8.10;3.28;;;19.70;31.20;;;;;;4995645;28;20486;-62
2022/02/19 08:25:34;;;;;;;5.63;2.00;;;18.20;31.60;;;;;;4977439;28;20085;-62
2022/02/19 08:28:01;;;;;;;6.82;1.52;;;17.10;34.30;;;;;;4978155;28;20082;-61
2022/02/19 08:30:28;;;;;;;4.55;1.50;;;16.40;35.20;;;;;;4994876;28;20074;-62
2022/02/19 08:32:53;;;;;;;6.93;1.60;;;15.90;35.60;;;;;;4994996;28;20061;-62
2022/02/19 08:35:19;;;;;;;5.13;1.40;;;15.30;36.50;;;;;;4995346;28;20034;-62
2022/02/19 08:37:45;;;;;;;6.75;1.75;;;14.70;37.30;;;;;;4976625;28;20026;-62
2022/02/19 08:40:14;;;;;;;6.25;1.70;;;14.40;38.00;;;;;;4995420;28;20057;-61
2022/02/19 08:42:40;;;;;;;8.30;1.90;;;14.10;38.20;;;;;;4977415;28;20034;-61
2022/02/19 08:45:07;;;;;;;4.57;1.60;;;13.90;38.50;;;;;;4978290;28;20548;-60
2022/02/19 08:47:34;;;;;;;5.90;1.85;;;13.60;39.30;;;;;;4994868;28;20473;-61
2022/02/19 08:50:06;;;;;;;7.97;1.83;;;13.30;40.00;;;;;;4995543;28;20026;-62
2022/02/19 08:52:33;;;;;;;4.53;1.70;;;13.20;39.90;;;;;;4994594;28;20038;-60
2022/02/19 08:54:59;;;;;;;5.43;1.77;;;13.10;40.30;;;;;;4977785;28;20102;-61
2022/02/19 08:57:25;;;;;;;5.78;1.92;;;13.10;40.60;;;;;;4977985;28;20464;-61
2022/02/19 08:59:51;;;;;;;5.85;1.75;;;13.10;40.70;;;;;;4977087;28;20061;-60
2022/02/19 09:02:17;;;;;;;8.35;1.85;;;13.00;40.50;;;;;;4995173;28;20066;-60
2022/02/19 09:04:43;;;;;;;6.00;1.45;;;13.00;40.70;;;;;;4976104;28;20470;-61
2022/02/19 09:07:10;;;;;;;7.65;1.80;;;12.90;40.30;;;;;;4994587;28;20074;-60
2022/02/19 09:09:36;;;;;;;6.57;1.70;;;12.90;42.30;;;;;;4994316;28;20407;-61
2022/02/19 09:12:05;;;;;;;6.25;1.60;;;12.90;40.30;;;;;;4994160;28;20109;-62
2022/02/19 09:14:30;;;;;;;3.75;1.40;;;12.80;40.20;;;;;;4977308;28;20034;-62
2022/02/19 09:16:56;;;;;;;4.78;1.60;;;12.90;40.10;;;;;;4976138;28;20033;-60
2022/02/19 09:19:23;;;;;;;6.15;1.98;;;12.80;40.20;;;;;;4977364;28;20089;-60
2022/02/19 09:21:49;;;;;;;4.93;1.38;;;12.90;40.00;;;;;;4976401;28;20026;-61
2022/02/19 09:24:15;;;;;;;3.97;1.65;;;13.00;39.70;;;;;;4977268;28;20030;-60
2022/02/19 09:26:44;;;;;;;4.05;2.00;;;12.90;39.40;;;;;;4993749;28;20085;-61
2022/02/19 09:29:09;;;;;;;5.88;1.50;;;12.90;39.80;;;;;;4956946;28;20057;-60
2022/02/19 09:31:41;;;;;;;5.70;1.67;;;12.90;40.10;;;;;;4953171;29;20129;-68
2022/02/19 09:34:08;;;;;;;6.05;1.63;;;12.90;39.60;;;;;;4948226;29;20192;-65
2022/02/19 09:36:35;;;;;;;4.25;1.48;;;13.00;39.90;;;;;;4951571;29;20146;-61
2022/02/19 09:39:01;;;;;;;3.75;1.40;;;13.00;40.60;;;;;;4948597;29;20041;-60
2022/02/19 09:41:28;;;;;;;9.10;1.58;;;13.00;40.00;;;;;;4950722;29;20035;-63
2022/02/19 09:43:54;;;;;;;7.82;1.52;;;13.00;40.70;;;;;;4947666;29;20028;-62
2022/02/19 09:46:20;;;;;;;4.80;1.70;;;13.20;40.90;;;;;;4943577;29;20131;-60
2022/02/19 09:48:47;;;;;;;6.13;1.90;;;13.30;40.00;;;;;;4950549;29;20112;-61
2022/02/19 09:51:14;;;;;;;5.93;1.60;;;13.10;40.50;;;;;;4952251;28;20027;-59
2022/02/19 09:53:41;;;;;;;8.18;2.15;;;13.10;40.50;;;;;;4953975;29;20086;-62
2022/02/19 09:56:07;;;;;;;8.63;2.08;;;13.10;40.50;;;;;;4954544;28;20038;-63
2022/02/19 09:58:33;;;;;;;4.35;1.85;;;13.20;40.10;;;;;;4953625;29;20027;-58
2022/02/19 10:01:17;;;;;;;5.03;1.73;;;13.10;39.30;;;;;;4954807;28;20050;-60
2022/02/19 10:03:45;;;;;;;3.97;1.33;;;13.00;39.30;;;;;;4952931;29;20034;-61
2022/02/19 10:06:12;;;;;;;9.50;1.90;;;13.00;39.10;;;;;;4953405;29;20078;-59
2022/02/19 10:08:42;;;;;;;11.82;2.08;;;13.10;38.90;;;;;;4953802;29;20485;-63
2022/02/19 10:11:14;;;;;;;7.88;2.20;;;13.20;39.70;;;;;;4970227;28;20089;-61
2022/02/19 10:13:41;;;;;;;6.05;2.10;;;13.30;39.60;;;;;;4954610;28;20027;-61
2022/02/19 10:16:11;;;;;;;6.13;2.22;;;13.10;39.10;;;;;;4953678;29;20031;-61
2022/02/19 10:18:42;;;;;;;7.43;1.98;;;13.10;39.00;;;;;;4954809;28;20048;-64
2022/02/19 10:21:14;;;;;;;8.23;1.90;;;13.00;38.40;;;;;;4952222;29;20614;-62
2022/02/19 10:23:48;;;;;;;4.78;1.80;;;13.10;38.10;;;;;;4952168;29;20038;-62
2022/02/19 10:26:16;;;;;;;5.28;1.80;;;13.10;37.40;;;;;;4954067;28;20031;-61
2022/02/19 10:28:59;;;;;;;6.68;2.28;;;13.10;37.80;;;;;;4978760;28;20053;-61
2022/02/19 10:31:26;;;;;;;6.55;1.80;;;13.10;38.80;;;;;;4975446;28;20026;-60
2022/02/19 10:34:16;;;;;;;10.48;2.22;;;13.10;39.40;;;;;;4975125;28;20041;-61
2022/02/19 10:36:51;;;;;;;5.20;2.22;;;13.20;38.90;;;;;;4971889;28;20041;-61
2022/02/19 10:39:40;;;;;;;6.70;2.17;;;13.40;38.00;;;;;;4992798;28;20038;-60
2022/02/19 10:42:10;;;;;;;7.57;1.67;;;13.40;37.50;;;;;;4974568;28;20121;-59
2022/02/19 10:44:36;;;;;;;4.68;1.58;;;13.40;37.00;;;;;;4991366;28;20065;-59
2022/02/19 10:47:23;;;;;;;6.47;2.15;;;13.40;36.70;;;;;;4992265;28;20069;-61
2022/02/19 10:50:12;;;;;;;10.95;2.40;;;13.50;36.70;;;;;;4975181;28;20080;-60
2022/02/19 10:52:40;;;;;;;5.32;1.80;;;13.40;37.80;;;;;;4992684;28;20105;-60
2022/02/19 10:55:11;;;;;;;5.55;2.05;;;13.30;38.20;;;;;;4973176;28;20037;-59
2022/02/19 10:57:42;;;;;;;8.35;2.53;;;13.30;37.90;;;;;;4975157;28;20030;-62
2022/02/19 11:00:12;;;;;;;11.23;2.40;;;13.10;38.90;;;;;;4958670;28;20026;-60
2022/02/19 11:02:39;;;;;;;6.35;2.38;;;13.10;38.60;;;;;;4974901;28;20076;-60
2022/02/19 11:05:08;;;;;;;5.05;1.90;;;13.30;38.40;;;;;;4973622;28;20034;-62
2022/02/19 11:07:44;;;;;;;5.57;2.35;;;13.30;38.40;;;;;;4974387;28;20141;-61
2022/02/19 11:10:42;;;;;;;5.00;1.70;;;13.40;38.10;;;;;;4991867;28;20364;-62
2022/02/19 11:13:11;;;;;;;5.55;2.67;;;13.20;38.60;;;;;;4991277;28;20022;-60
2022/02/19 11:15:37;;;;;;;6.20;2.50;;;13.10;37.60;;;;;;4974751;28;20038;-60
2022/02/19 11:18:06;;;;;;;7.18;2.13;;;13.10;38.80;;;;;;4992143;28;20066;-60
2022/02/19 11:20:33;;;;;;;6.07;2.60;;;13.00;38.30;;;;;;4974690;28;20030;-63
2022/02/19 11:23:01;;;;;;;8.45;2.17;;;13.00;37.80;;;;;;4973829;28;20110;-61
2022/02/19 11:25:29;;;;;;;8.20;2.28;;;13.10;38.00;;;;;;4974973;28;20107;-62
2022/02/19 11:28:12;;;;;;;3.80;1.83;;;13.30;38.10;;;;;;4964461;28;20047;-63
2022/02/19 11:30:55;;;;;;;3.83;1.98;;;13.30;37.60;;;;;;4952697;29;20031;-65
2022/02/19 11:33:26;;;;;;;4.68;2.00;;;13.40;36.90;;;;;;4952636;29;20042;-62
2022/02/19 11:35:58;;;;;;;6.25;1.88;;;13.60;36.80;;;;;;4951393;29;20582;-61
2022/02/19 11:38:35;;;;;;;7.07;1.50;;;13.70;36.50;;;;;;4948624;29;20027;-61
2022/02/19 11:41:06;;;;;;;7.55;2.20;;;13.60;36.30;;;;;;4951522;29;20031;-61
2022/02/19 11:43:40;;;;;;;6.22;2.05;;;13.70;36.20;;;;;;4953090;28;20038;-61
2022/02/19 11:46:10;;;;;;;5.57;2.00;;;13.60;36.80;;;;;;4951339;29;20212;-61
2022/02/19 11:48:36;;;;;;;4.00;1.80;;;13.60;36.70;;;;;;4951433;29;20031;-61
2022/02/19 11:51:12;;;;;;;6.20;2.40;;;13.60;36.40;;;;;;4953264;28;20059;-61
2022/02/19 11:53:38;;;;;;;5.60;1.67;;;13.70;35.60;;;;;;4952133;29;20039;-62
2022/02/19 11:56:10;;;;;;;7.85;2.30;;;13.60;35.30;;;;;;4951842;29;20035;-62
2022/02/19 11:58:53;;;;;;;6.38;1.80;;;13.50;35.20;;;;;;4952355;29;20027;-60
2022/02/19 12:01:19;;;;;;;4.72;1.80;;;13.60;36.00;;;;;;4953485;28;20109;-61
2022/02/19 12:03:45;;;;;;;6.18;2.00;;;13.60;35.50;;;;;;4953230;28;20475;-60
2022/02/19 12:06:23;;;;;;;8.63;2.00;;;13.60;35.20;;;;;;4951497;29;20035;-61
2022/02/19 12:08:49;;;;;;;14.23;2.33;;;13.70;35.20;;;;;;4952523;28;20038;-62
2022/02/19 12:11:20;;;;;;;6.13;2.25;;;13.70;35.10;;;;;;4951527;29;20024;-63
2022/02/19 12:13:55;;;;;;;5.03;2.00;;;13.70;34.70;;;;;;4952259;28;20503;-66
2022/02/19 12:16:39;;;;;;;6.70;2.10;;;13.70;34.20;;;;;;4951934;29;20059;-62
2022/02/19 12:19:06;;;;;;;5.70;2.00;;;13.60;34.00;;;;;;4951802;28;20506;-61
2022/02/19 12:21:40;;;;;;;5.70;1.80;;;13.60;33.90;;;;;;4951501;29;20039;-61
2022/02/19 12:24:10;;;;;;;6.43;2.22;;;13.60;34.20;;;;;;4935064;29;20094;-61
2022/02/19 12:26:59;;;;;;;8.75;2.00;;;13.60;34.30;;;;;;4953038;28;20102;-61
2022/02/19 12:29:35;;;;;;;6.15;2.00;;;13.70;33.90;;;;;;4951045;28;20043;-62
2022/02/19 12:32:09;;;;;;;4.75;1.95;;;13.60;33.80;;;;;;4952196;28;20032;-61
2022/02/19 12:34:39;;;;;;;5.60;1.70;;;13.70;34.20;;;;;;4951540;29;20038;-61
2022/02/19 12:37:09;;;;;;;4.68;1.70;;;13.80;34.20;;;;;;4952905;28;20023;-63
2022/02/19 12:39:42;;;;;;;3.92;1.40;;;13.80;34.10;;;;;;4953269;28;20459;-61
2022/02/19 12:42:15;;;;;;;5.00;1.70;;;13.80;33.40;;;;;;4951111;29;20031;-60
2022/02/19 12:44:41;;;;;;;4.78;1.60;;;14.00;33.30;;;;;;4951452;29;20031;-61
2022/02/19 12:47:08;;;;;;;5.65;1.75;;;14.00;33.10;;;;;;4951357;29;20078;-61
2022/02/19 12:49:34;;;;;;;4.38;2.05;;;14.00;32.70;;;;;;4952929;28;20086;-62
2022/02/19 12:52:02;;;;;;;7.45;2.33;;;14.00;33.40;;;;;;4954305;28;20043;-61
2022/02/19 12:54:43;;;;;;;7.45;1.80;;;14.10;33.50;;;;;;4955703;28;20029;-62
2022/02/19 12:57:12;;;;;;;6.22;2.30;;;14.20;34.00;;;;;;4955025;28;20031;-64